Ely, NV

00:46 PDT le 25 octobre 2014 (GMT -0700)
Ely | Change Station
CLOSE
Current Station
Aéroport
Location: Ely,
Altitude: 6260 ft
Stations météo à proximité
Avis météorologiques actifs: Wind Advisory Préavis actif: Record Report

Alt. 6260 ft 39.30 °N, 114.85 °W | Updated 53 minutes ago

Ciel dégagé
Ciel dégagé
51 ° F
Paraît 51 ° F
N
14
Vent Variable Vent de Sud

Aujourd'hui
Haut(e) -- | Bas -- ° F
--% Risque de précip.
Hier
Haut(e) -- | Bas -- ° F
Precip. -- pouce
6:59 AM 5:46 PM
Nouvelle lune, 2% visible
Pression 29.97 pouce
Visibilité 10.0 Miles terrestres
Nuages Ciel dégagé
Point de rosée 28 ° F
Humidité 41%
Précipitations 0.00 pouce
Profondeur de la couche neigeuse Non disponible.
UV 0 sur 12
Pollen 2.90 sur 12
Qualité de l'air Non disponible.
Flu Activity No Activity
METAR KELY 250653Z AUTO 19012KT 10SM CLR 11/M02 A3021 RMK AO2 SLP149 T01061022

More Conditions Fewer Conditions

Pression 29.97 pouce
Visibilité 10.0 Miles terrestres
Nuages Ciel dégagé
Point de rosée 28 ° F
Humidité 41%
Précipitations 0.00 pouce
Profondeur de la couche neigeuse Non disponible.
UV 0 sur 12
Pollen 2.90 sur 12
Qualité de l'air Non disponible.
Flu Activity No Activity
METAR KELY 250653Z AUTO 19012KT 10SM CLR 11/M02 A3021 RMK AO2 SLP149 T01061022

More Conditions Fewer Conditions

10-Day Weather Forecast

Almanac

Astronomie

Oct. 25, 2014 Lever Coucher
Temps réel 06:59 PDT 17:46 PDT
Crépuscule civil 06:32 PDT 18:13 PDT
Crépuscule nautique 06:00 PDT 18:45 PDT
Crépuscule astronomique 05:29 PDT 19:16 PDT
Lune 08:42 PDT 19:13 PDT
Durée de lumière visible 11h 41m
Longueur du jour
10h 46m
Tomorrow will be 2m 21s shorter.
Nouvelle lune, 2% of the Moon is Illuminated
Aujourd'hui
Nouvelle lune
Oct 30
Premier quartier
Nov 6
Pleine lune
Nov 14
Dernier quartier
Nov 22
Nouveau

Community

WunderPhotos

Upload Photos

1,764,791 Photos téléchargées !

Nearby

Épaisseur de neige

Station Depth Altitude
Ward Mountain 0 in 9200 ft
Diamond Peak 1 in 8000 ft
Corral Canyon 0 in 8500 ft
Green Mountain 0 in 8000 ft
Lamoille #3 1 in 7700 ft

Activité sismique

Ville Distance Mag. Time & Date
No recent earthquake activity has been reported nearby.
Minimum magnitude displayed is 2.5.

Températures des eaux côtières

Lieu Température
Aucun rapport de station

Stations météo à proximité